createdAt,value
2023-09-09T00:00:51.234Z,100424.38
2023-09-09T00:03:20.043Z,100426.44
2023-09-09T00:05:48.036Z,100422.94
2023-09-09T00:08:16.669Z,100423.09
2023-09-09T00:10:46.249Z,100418.03
2023-09-09T00:13:14.706Z,100416.50
2023-09-09T00:15:42.550Z,100426.22
2023-09-09T00:18:10.797Z,100417.59
2023-09-09T00:20:40.425Z,100417.56
2023-09-09T00:23:09.641Z,100426.22
2023-09-09T00:25:37.910Z,100425.25
2023-09-09T00:28:08.078Z,100424.72
2023-09-09T00:30:36.089Z,100427.13
2023-09-09T00:33:04.766Z,100423.28
2023-09-09T00:35:33.745Z,100422.19
2023-09-09T00:38:01.797Z,100431.28
2023-09-09T00:40:29.854Z,100425.66
2023-09-09T00:42:57.653Z,100427.34
2023-09-09T00:45:28.456Z,100423.09
2023-09-09T00:47:56.676Z,100423.84
2023-09-09T00:50:25.930Z,100427.03
2023-09-09T00:52:53.963Z,100431.00
2023-09-09T00:55:25.556Z,100426.78
2023-09-09T00:57:53.356Z,100433.88
2023-09-09T01:00:21.156Z,100426.75
2023-09-09T01:02:50.555Z,100424.34
2023-09-09T01:05:18.394Z,100425.19
2023-09-09T01:07:47.832Z,100431.50
2023-09-09T01:10:18.081Z,100443.03
2023-09-09T01:12:46.358Z,100439.34
2023-09-09T01:15:15.286Z,100435.06
2023-09-09T01:17:43.568Z,100430.88
2023-09-09T01:20:15.773Z,100432.47
2023-09-09T01:22:49.660Z,100437.63
2023-09-09T01:25:18.699Z,100434.25
2023-09-09T01:27:47.094Z,100434.56
2023-09-09T01:30:15.465Z,100434.22
2023-09-09T01:32:43.522Z,100427.78
2023-09-09T01:35:11.586Z,100426.06
2023-09-09T01:37:39.630Z,100437.00
2023-09-09T01:40:13.883Z,100430.78
2023-09-09T01:42:42.485Z,100428.38
2023-09-09T01:45:11.850Z,100429.22
2023-09-09T01:47:40.822Z,100424.44
2023-09-09T01:50:09.792Z,100429.72
2023-09-09T01:52:37.998Z,100420.63
2023-09-09T01:55:06.478Z,100429.94
2023-09-09T01:57:36.634Z,100434.00
2023-09-09T02:00:08.778Z,100433.38
2023-09-09T02:02:41.063Z,100434.41
2023-09-09T02:05:11.182Z,100438.75
2023-09-09T02:07:39.370Z,100439.59
2023-09-09T02:10:10.168Z,100441.59
2023-09-09T02:12:41.285Z,100437.41
2023-09-09T02:15:11.704Z,100440.47
2023-09-09T02:17:39.695Z,100437.19
2023-09-09T02:20:10.885Z,100432.56
2023-09-09T02:22:39.127Z,100436.16
2023-09-09T02:25:08.913Z,100441.00
2023-09-09T02:27:37.020Z,100434.91
2023-09-09T02:30:07.266Z,100435.09
2023-09-09T02:32:35.813Z,100432.56
2023-09-09T02:35:05.379Z,100443.53
2023-09-09T02:37:33.636Z,100440.97
2023-09-09T02:40:01.393Z,100435.94
2023-09-09T02:42:29.183Z,100441.59
2023-09-09T02:44:57.105Z,100444.16
2023-09-09T02:47:26.336Z,100445.00
2023-09-09T02:49:54.669Z,100445.41
2023-09-09T02:52:23.051Z,100445.84
2023-09-09T02:54:51.513Z,100438.25
2023-09-09T02:57:19.700Z,100445.22
2023-09-09T02:59:47.425Z,100451.50
2023-09-09T03:02:16.163Z,100449.41
2023-09-09T03:04:45.250Z,100452.34
2023-09-09T03:07:12.999Z,100453.50
2023-09-09T03:09:41.091Z,100454.56
2023-09-09T03:12:09.434Z,100449.22
2023-09-09T03:14:37.396Z,100452.56
2023-09-09T03:17:05.813Z,100448.78
2023-09-09T03:19:35.316Z,100448.69
2023-09-09T03:22:04.634Z,100448.47
2023-09-09T03:24:32.473Z,100451.41
2023-09-09T03:27:00.272Z,100446.78
2023-09-09T03:29:28.118Z,100448.38
2023-09-09T03:31:56.094Z,100451.63
2023-09-09T03:34:24.133Z,100459.19
2023-09-09T03:36:52.552Z,100453.84
2023-09-09T03:39:21.996Z,100455.91
2023-09-09T03:41:49.860Z,100451.38
2023-09-09T03:44:17.600Z,100460.53
2023-09-09T03:46:46.453Z,100463.19
2023-09-09T03:49:14.348Z,100463.41
2023-09-09T03:51:42.841Z,100463.72
2023-09-09T03:54:11.859Z,100462.78
2023-09-09T03:56:41.479Z,100461.06
2023-09-09T03:59:09.553Z,100468.41
2023-09-09T04:01:38.143Z,100465.44
2023-09-09T04:04:06.468Z,100463.28
2023-09-09T04:06:35.162Z,100463.53
2023-09-09T04:09:03.310Z,100463.97
2023-09-09T04:11:31.752Z,100463.03
2023-09-09T04:14:01.611Z,100462.28
2023-09-09T04:16:29.832Z,100468.97
2023-09-09T04:18:57.801Z,100468.53
2023-09-09T04:21:25.761Z,100468.53
2023-09-09T04:23:53.753Z,100467.03
2023-09-09T04:26:21.463Z,100469.22
2023-09-09T04:28:49.451Z,100467.84
2023-09-09T04:31:18.929Z,100470.97
2023-09-09T04:33:46.936Z,100467.16
2023-09-09T04:36:15.264Z,100472.31
2023-09-09T04:38:43.399Z,100470.66
2023-09-09T04:41:11.884Z,100474.91
2023-09-09T04:43:40.046Z,100466.63
2023-09-09T04:46:08.670Z,100469.16
2023-09-09T04:48:38.350Z,100471.88
2023-09-09T04:51:06.340Z,100476.31
2023-09-09T04:53:34.073Z,100474.50
2023-09-09T04:56:03.524Z,100477.72
2023-09-09T04:58:34.297Z,100474.06
2023-09-09T05:01:02.427Z,100473.88
2023-09-09T05:03:32.830Z,100476.00
2023-09-09T05:06:02.244Z,100486.50
2023-09-09T05:08:30.087Z,100485.47
2023-09-09T05:10:58.126Z,100482.50
2023-09-09T05:13:26.171Z,100484.84
2023-09-09T05:15:56.110Z,100485.50
2023-09-09T05:18:24.336Z,100493.88
2023-09-09T05:20:53.408Z,100492.44
2023-09-09T05:23:22.541Z,100492.34
2023-09-09T05:25:51.292Z,100488.78
2023-09-09T05:28:20.093Z,100501.75
2023-09-09T05:30:48.972Z,100496.50
2023-09-09T05:33:16.912Z,100499.03
2023-09-09T05:35:44.867Z,100500.41
2023-09-09T05:38:12.756Z,100501.84
2023-09-09T05:40:42.312Z,100497.84
2023-09-09T05:43:10.326Z,100494.84
2023-09-09T05:45:38.203Z,100501.69
2023-09-09T05:48:07.181Z,100506.00
2023-09-09T05:50:35.018Z,100510.31
2023-09-09T05:53:03.444Z,100507.56
2023-09-09T05:55:32.086Z,100502.00
2023-09-09T05:58:01.645Z,100505.75
2023-09-09T06:00:29.866Z,100502.47
2023-09-09T06:02:57.780Z,100503.78
2023-09-09T06:05:25.768Z,100503.25
2023-09-09T06:07:53.601Z,100508.84
2023-09-09T06:10:21.943Z,100498.75
2023-09-09T06:12:49.849Z,100509.88
2023-09-09T06:15:19.366Z,100504.94
2023-09-09T06:17:47.334Z,100508.00
2023-09-09T06:20:15.797Z,100516.53
2023-09-09T06:22:44.252Z,100513.50
2023-09-09T06:25:12.452Z,100509.63
2023-09-09T06:27:40.763Z,100508.34
2023-09-09T06:30:09.502Z,100508.16
2023-09-09T06:32:39.725Z,100506.66
2023-09-09T06:35:08.379Z,100513.38
2023-09-09T06:37:36.489Z,100511.91
2023-09-09T06:40:04.640Z,100516.97
2023-09-09T06:42:33.103Z,100518.00
2023-09-09T06:45:04.242Z,100513.13
2023-09-09T06:47:32.992Z,100523.56
2023-09-09T06:50:04.207Z,100512.78
2023-09-09T06:52:32.446Z,100514.25
2023-09-09T06:55:01.343Z,100517.50
2023-09-09T06:57:30.056Z,100515.16
2023-09-09T06:59:58.241Z,100520.44
2023-09-09T07:02:26.933Z,100525.16
2023-09-09T07:04:55.386Z,100526.50
2023-09-09T07:07:27.272Z,100528.75
2023-09-09T07:09:58.355Z,100526.41
2023-09-09T07:12:28.275Z,100530.03
2023-09-09T07:14:56.253Z,100522.31
2023-09-09T07:17:24.191Z,100520.31
2023-09-09T07:19:51.937Z,100520.81
2023-09-09T07:22:19.688Z,100520.03
2023-09-09T07:24:48.912Z,100513.19
2023-09-09T07:27:17.404Z,100508.88
2023-09-09T07:29:45.424Z,100515.13
2023-09-09T07:32:13.252Z,100508.22
2023-09-09T07:34:41.427Z,100502.28
2023-09-09T07:37:09.674Z,100511.00
2023-09-09T07:39:47.145Z,100512.34
2023-09-09T07:42:16.306Z,100523.38
2023-09-09T07:44:45.305Z,100520.59
2023-09-09T07:47:13.517Z,100508.84
2023-09-09T07:49:43.729Z,100505.16
2023-09-09T07:52:12.009Z,100520.72
2023-09-09T07:54:39.777Z,100521.31
2023-09-09T07:57:11.176Z,100518.13
2023-09-09T07:59:41.945Z,100521.00
2023-09-09T08:02:10.318Z,100522.56
2023-09-09T08:04:38.237Z,100519.78
2023-09-09T08:07:06.318Z,100513.19
2023-09-09T08:09:34.534Z,100505.22
2023-09-09T08:12:02.232Z,100504.91
2023-09-09T08:14:30.077Z,100511.78
2023-09-09T08:16:59.334Z,100516.34
2023-09-09T08:19:27.134Z,100512.88
2023-09-09T08:21:54.851Z,100513.41
2023-09-09T08:24:22.905Z,100515.34
2023-09-09T08:26:50.684Z,100519.28
2023-09-09T08:29:18.446Z,100514.81
2023-09-09T08:31:48.330Z,100516.41
2023-09-09T08:34:17.498Z,100514.44
2023-09-09T08:36:45.513Z,100513.03
2023-09-09T08:39:13.583Z,100516.13
2023-09-09T08:41:56.146Z,100510.56
2023-09-09T08:44:35.907Z,100510.06
2023-09-09T08:47:04.386Z,100514.09
2023-09-09T08:49:37.732Z,100511.41
2023-09-09T08:52:12.497Z,100509.34
2023-09-09T08:54:40.824Z,100507.13
2023-09-09T08:57:08.904Z,100502.50
2023-09-09T08:59:40.667Z,100499.28
2023-09-09T09:02:12.463Z,100501.41
2023-09-09T09:04:43.340Z,100496.31
2023-09-09T09:07:12.097Z,100488.06
2023-09-09T09:09:40.253Z,100477.03
2023-09-09T09:12:09.848Z,100492.03
2023-09-09T09:14:47.004Z,100485.59
2023-09-09T09:17:17.841Z,100480.22
2023-09-09T09:19:47.092Z,100475.03
2023-09-09T09:22:15.996Z,100476.16
2023-09-09T09:24:44.827Z,100477.25
2023-09-09T09:27:13.026Z,100485.03
2023-09-09T09:29:41.824Z,100487.03
2023-09-09T09:32:12.084Z,100497.66
2023-09-09T09:34:40.503Z,100484.59
2023-09-09T09:37:14.825Z,100469.59
2023-09-09T09:39:44.458Z,100465.25
2023-09-09T09:42:13.622Z,100469.03
2023-09-09T09:44:41.497Z,100453.72
2023-09-09T09:47:12.142Z,100458.03
2023-09-09T09:49:41.654Z,100453.50
2023-09-09T09:52:10.670Z,100448.53
2023-09-09T09:54:40.818Z,100450.78
2023-09-09T09:57:09.295Z,100454.22
2023-09-09T09:59:39.539Z,100460.06
2023-09-09T10:02:07.644Z,100456.84
2023-09-09T10:04:40.313Z,100445.31
2023-09-09T10:07:12.548Z,100447.47
2023-09-09T10:09:47.012Z,100440.25
2023-09-09T10:12:29.838Z,100457.31
2023-09-09T10:15:07.990Z,100448.38
2023-09-09T10:17:37.337Z,100449.34
2023-09-09T10:20:07.935Z,100445.34
2023-09-09T10:22:37.652Z,100445.66
2023-09-09T10:25:11.552Z,100463.22
2023-09-09T10:27:40.345Z,100452.19
2023-09-09T10:30:10.566Z,100450.53
2023-09-09T10:32:39.398Z,100441.47
2023-09-09T10:35:08.864Z,100449.44
2023-09-09T10:37:39.025Z,100445.75
2023-09-09T10:40:10.597Z,100440.22
2023-09-09T10:42:40.617Z,100434.84
2023-09-09T10:45:24.223Z,100443.53
2023-09-09T10:47:57.272Z,100436.97
2023-09-09T10:50:26.151Z,100425.34
2023-09-09T10:53:12.182Z,100430.53
2023-09-09T10:55:41.318Z,100421.97
2023-09-09T10:58:09.675Z,100395.03
2023-09-09T11:00:39.907Z,100415.63
2023-09-09T11:03:12.195Z,100389.38
2023-09-09T11:06:07.117Z,100378.91
2023-09-09T11:08:37.372Z,100399.38
2023-09-09T11:11:11.435Z,100389.06
2023-09-09T11:13:44.440Z,100395.59
2023-09-09T11:16:36.162Z,100410.34
2023-09-09T11:19:07.229Z,100411.22
2023-09-09T11:21:36.729Z,100405.19
2023-09-09T11:24:05.190Z,100388.50
2023-09-09T11:26:38.107Z,100389.59
2023-09-09T11:29:08.315Z,100374.63
2023-09-09T11:31:42.661Z,100372.38
2023-09-09T11:34:10.909Z,100377.72
2023-09-09T11:36:38.841Z,100355.88
2023-09-09T11:39:09.002Z,100350.56
2023-09-09T11:41:38.087Z,100357.63
2023-09-09T11:44:07.951Z,100368.00
2023-09-09T11:46:38.732Z,100372.53
2023-09-09T11:49:07.110Z,100362.72
2023-09-09T11:51:35.991Z,100337.47
2023-09-09T11:54:04.929Z,100334.56
2023-09-09T11:56:34.864Z,100315.91
2023-09-09T11:59:09.484Z,100327.50
2023-09-09T12:01:46.108Z,100337.16
2023-09-09T12:04:14.994Z,100321.59
2023-09-09T12:06:46.750Z,100342.53
2023-09-09T12:09:15.755Z,100326.47
2023-09-09T12:11:44.877Z,100315.56
2023-09-09T12:14:16.117Z,100315.28
2023-09-09T12:16:47.386Z,100317.94
2023-09-09T12:19:15.361Z,100319.34
2023-09-09T12:21:47.984Z,100302.91
2023-09-09T12:24:16.528Z,100300.88
2023-09-09T12:26:52.467Z,100307.38
2023-09-09T12:29:21.763Z,100312.84
2023-09-09T12:31:57.842Z,100315.72
2023-09-09T12:34:27.001Z,100304.09
2023-09-09T12:36:59.168Z,100301.84
2023-09-09T12:39:28.691Z,100295.91
2023-09-09T12:42:04.454Z,100309.69
2023-09-09T12:44:35.656Z,100301.69
2023-09-09T12:47:07.091Z,100282.78
2023-09-09T12:49:36.291Z,100298.25
2023-09-09T12:52:04.891Z,100310.38
2023-09-09T12:54:32.875Z,100305.47
2023-09-09T12:57:01.282Z,100301.50
2023-09-09T12:59:29.496Z,100316.06
2023-09-09T13:02:00.170Z,100319.13
2023-09-09T13:04:28.358Z,100312.25
2023-09-09T13:06:57.058Z,100314.72
2023-09-09T13:09:25.683Z,100307.84
2023-09-09T13:11:54.117Z,100324.22
2023-09-09T13:14:26.885Z,100324.78
2023-09-09T13:16:56.211Z,100317.91
2023-09-09T13:19:29.544Z,100310.91
2023-09-09T13:21:59.153Z,100326.53
2023-09-09T13:24:27.443Z,100324.75
2023-09-09T13:26:55.772Z,100305.63
2023-09-09T13:29:23.553Z,100308.91
2023-09-09T13:31:52.153Z,100298.47
2023-09-09T13:34:21.972Z,100311.34
2023-09-09T13:36:55.152Z,100307.25
2023-09-09T13:39:23.713Z,100309.53
2023-09-09T13:41:51.772Z,100309.44
2023-09-09T13:44:19.897Z,100319.84
2023-09-09T13:46:48.733Z,100323.06
2023-09-09T13:49:17.346Z,100315.00
2023-09-09T13:51:46.619Z,100304.56
2023-09-09T13:54:16.364Z,100322.19
2023-09-09T13:56:48.828Z,100315.16
2023-09-09T13:59:22.448Z,100308.28
2023-09-09T14:01:51.200Z,100319.13
2023-09-09T14:04:20.495Z,100312.84
2023-09-09T14:06:48.771Z,100318.81
2023-09-09T14:09:18.328Z,100310.84
2023-09-09T14:11:48.285Z,100303.84
2023-09-09T14:14:18.521Z,100314.97
2023-09-09T14:16:48.036Z,100306.31
2023-09-09T14:19:16.688Z,100324.38
2023-09-09T14:21:48.100Z,100310.91
2023-09-09T14:24:18.022Z,100318.59
2023-09-09T14:26:46.597Z,100315.50
2023-09-09T14:29:14.831Z,100321.91
2023-09-09T14:31:43.765Z,100307.41
2023-09-09T14:34:12.662Z,100301.56
2023-09-09T14:36:41.237Z,100304.94
2023-09-09T14:39:09.386Z,100309.03
2023-09-09T14:41:38.860Z,100305.75
2023-09-09T14:44:07.973Z,100301.19
2023-09-09T14:46:35.951Z,100319.00
2023-09-09T14:49:05.533Z,100304.25
2023-09-09T14:51:35.278Z,100299.88
2023-09-09T14:54:04.815Z,100302.59
2023-09-09T14:56:33.074Z,100309.03
2023-09-09T14:59:03.398Z,100310.47
2023-09-09T15:01:31.741Z,100301.53
2023-09-09T15:03:59.867Z,100323.22
2023-09-09T15:06:28.057Z,100327.34
2023-09-09T15:08:56.347Z,100322.78
2023-09-09T15:11:24.320Z,100331.47
2023-09-09T15:13:52.329Z,100335.31
2023-09-09T15:16:23.120Z,100339.59
2023-09-09T15:18:51.079Z,100347.22
2023-09-09T15:21:19.183Z,100337.19
2023-09-09T15:23:47.124Z,100329.94
2023-09-09T15:26:14.849Z,100343.94
2023-09-09T15:28:42.628Z,100348.16
2023-09-09T15:31:10.389Z,100345.25
2023-09-09T15:33:39.438Z,100359.72
2023-09-09T15:36:07.495Z,100347.56
2023-09-09T15:38:37.000Z,100345.81
2023-09-09T15:41:06.389Z,100359.66
2023-09-09T15:43:34.563Z,100355.84
2023-09-09T15:46:03.741Z,100357.06
2023-09-09T15:48:31.773Z,100358.06
2023-09-09T15:51:03.893Z,100364.00
2023-09-09T15:53:31.826Z,100365.63
2023-09-09T15:56:00.950Z,100362.72
2023-09-09T15:58:28.946Z,100359.22
2023-09-09T16:01:00.792Z,100360.88
2023-09-09T16:03:28.714Z,100358.41
2023-09-09T16:06:04.895Z,100359.66
2023-09-09T16:08:34.016Z,100369.50
2023-09-09T16:11:02.547Z,100368.44
2023-09-09T16:13:30.710Z,100368.69
2023-09-09T16:16:00.051Z,100371.00
2023-09-09T16:18:27.949Z,100370.72
2023-09-09T16:20:56.090Z,100369.91
2023-09-09T16:23:25.474Z,100373.47
2023-09-09T16:25:54.162Z,100369.13
2023-09-09T16:28:22.609Z,100371.81
2023-09-09T16:30:50.802Z,100373.47
2023-09-09T16:33:18.840Z,100380.56
2023-09-09T16:35:47.235Z,100374.53
2023-09-09T16:38:15.198Z,100382.03
2023-09-09T16:40:45.916Z,100378.03
2023-09-09T16:43:14.471Z,100375.88
2023-09-09T16:45:42.287Z,100380.06
2023-09-09T16:48:12.797Z,100376.72
2023-09-09T16:50:40.611Z,100380.56
2023-09-09T16:53:10.729Z,100378.22
2023-09-09T16:55:38.669Z,100381.53
2023-09-09T16:58:08.218Z,100390.81
2023-09-09T17:00:35.991Z,100389.97
2023-09-09T17:03:04.354Z,100392.47
2023-09-09T17:05:32.814Z,100394.44
2023-09-09T17:08:01.793Z,100402.59
2023-09-09T17:10:29.692Z,100401.06
2023-09-09T17:12:57.736Z,100397.75
2023-09-09T17:15:27.119Z,100399.69
2023-09-09T17:17:55.058Z,100399.66
2023-09-09T17:20:22.906Z,100393.50
2023-09-09T17:22:50.700Z,100393.13
2023-09-09T17:25:18.867Z,100399.56
2023-09-09T17:27:47.089Z,100401.03
2023-09-09T17:30:15.525Z,100394.50
2023-09-09T17:32:44.916Z,100393.47
2023-09-09T17:35:12.750Z,100388.91
2023-09-09T17:37:40.717Z,100387.19
2023-09-09T17:40:10.004Z,100393.31
2023-09-09T17:42:37.940Z,100396.75
2023-09-09T17:45:06.579Z,100397.22
2023-09-09T17:47:34.531Z,100405.81
2023-09-09T17:50:04.261Z,100412.94
2023-09-09T17:52:32.118Z,100407.38
2023-09-09T17:54:59.959Z,100409.06
2023-09-09T17:57:27.812Z,100416.75
2023-09-09T17:59:56.192Z,100415.03
2023-09-09T18:02:24.280Z,100420.34
2023-09-09T18:04:52.409Z,100412.97
2023-09-09T18:07:21.717Z,100414.56
2023-09-09T18:09:49.782Z,100420.34
2023-09-09T18:12:18.371Z,100411.97
2023-09-09T18:14:46.775Z,100418.31
2023-09-09T18:17:15.200Z,100418.06
2023-09-09T18:19:43.383Z,100420.34
2023-09-09T18:22:11.476Z,100419.97
2023-09-09T18:24:41.016Z,100419.13
2023-09-09T18:27:08.909Z,100418.75
2023-09-09T18:29:36.796Z,100430.81
2023-09-09T18:32:06.235Z,100433.63
2023-09-09T18:34:34.362Z,100436.13
2023-09-09T18:37:04.653Z,100434.84
2023-09-09T18:39:34.099Z,100437.41
2023-09-09T18:42:03.496Z,100443.44
2023-09-09T18:44:31.285Z,100450.03
2023-09-09T18:46:59.511Z,100451.88
2023-09-09T18:49:28.575Z,100450.34
2023-09-09T18:51:56.688Z,100461.28
2023-09-09T18:54:24.649Z,100458.41
2023-09-09T18:56:54.543Z,100447.06
2023-09-09T18:59:24.254Z,100457.69
2023-09-09T19:01:53.331Z,100463.75
2023-09-09T19:04:22.006Z,100460.53
2023-09-09T19:06:50.323Z,100460.69
2023-09-09T19:09:19.641Z,100464.47
2023-09-09T19:11:53.398Z,100467.28
2023-09-09T19:14:21.323Z,100463.78
2023-09-09T19:16:50.991Z,100465.06
2023-09-09T19:19:19.161Z,100471.50
2023-09-09T19:21:46.909Z,100466.50
2023-09-09T19:24:14.896Z,100467.91
2023-09-09T19:26:42.733Z,100473.63
2023-09-09T19:29:10.606Z,100473.09
2023-09-09T19:31:38.494Z,100472.56
2023-09-09T19:34:08.082Z,100476.19
2023-09-09T19:36:37.758Z,100473.69
2023-09-09T19:39:05.814Z,100485.84
2023-09-09T19:41:33.754Z,100486.28
2023-09-09T19:44:02.138Z,100481.50
2023-09-09T19:46:31.257Z,100480.25
2023-09-09T19:48:59.101Z,100484.47
2023-09-09T19:51:28.925Z,100487.41
2023-09-09T19:53:59.050Z,100481.13
2023-09-09T19:56:27.312Z,100489.78
2023-09-09T19:58:55.222Z,100488.41
2023-09-09T20:01:23.954Z,100486.16
2023-09-09T20:03:52.062Z,100494.81
2023-09-09T20:06:20.201Z,100495.38
2023-09-09T20:08:49.562Z,100488.91
2023-09-09T20:11:17.391Z,100498.13
2023-09-09T20:13:45.378Z,100489.91
2023-09-09T20:16:13.290Z,100501.03
2023-09-09T20:18:41.345Z,100493.91
2023-09-09T20:21:09.442Z,100500.22
2023-09-09T20:23:37.274Z,100503.41
2023-09-09T20:26:06.916Z,100501.16
2023-09-09T20:28:35.467Z,100498.91
2023-09-09T20:31:04.356Z,100505.34
2023-09-09T20:33:32.299Z,100503.38
2023-09-09T20:36:01.411Z,100509.75
2023-09-09T20:38:29.558Z,100504.63
2023-09-09T20:40:57.897Z,100517.31
2023-09-09T20:43:27.956Z,100514.91
2023-09-09T20:45:56.491Z,100511.97
2023-09-09T20:48:24.455Z,100511.13
2023-09-09T20:50:52.240Z,100516.28
2023-09-09T20:53:20.096Z,100515.28
2023-09-09T20:55:48.107Z,100516.25
2023-09-09T20:58:17.689Z,100513.59
2023-09-09T21:00:46.890Z,100505.41
2023-09-09T21:03:14.888Z,100510.69
2023-09-09T21:05:42.715Z,100509.13
2023-09-09T21:08:10.556Z,100514.44
2023-09-09T21:10:38.537Z,100516.41
2023-09-09T21:13:06.602Z,100515.41
2023-09-09T21:15:34.361Z,100524.38
2023-09-09T21:18:03.663Z,100516.84
2023-09-09T21:20:31.598Z,100520.47
2023-09-09T21:22:59.719Z,100522.09
2023-09-09T21:25:29.345Z,100525.59
2023-09-09T21:27:58.033Z,100518.59
2023-09-09T21:30:28.212Z,100523.44
2023-09-09T21:32:56.546Z,100525.78
2023-09-09T21:35:25.766Z,100521.16
2023-09-09T21:37:53.674Z,100526.09
2023-09-09T21:40:22.074Z,100518.59
2023-09-09T21:42:49.922Z,100524.44
2023-09-09T21:45:17.756Z,100520.50
2023-09-09T21:47:45.481Z,100520.66
2023-09-09T21:50:14.033Z,100518.00
2023-09-09T21:52:43.518Z,100521.72
2023-09-09T21:55:11.364Z,100515.16
2023-09-09T21:57:39.065Z,100519.47
2023-09-09T22:00:19.577Z,100513.34
2023-09-09T22:02:48.633Z,100519.66
2023-09-09T22:05:16.639Z,100525.94
2023-09-09T22:07:46.677Z,100531.53
2023-09-09T22:10:15.301Z,100531.22
2023-09-09T22:12:43.172Z,100531.06
2023-09-09T22:15:11.737Z,100531.06
2023-09-09T22:17:40.430Z,100526.84
2023-09-09T22:20:10.457Z,100530.50
2023-09-09T22:22:38.613Z,100531.34
2023-09-09T22:25:09.774Z,100520.72
2023-09-09T22:27:37.689Z,100520.88
2023-09-09T22:30:08.215Z,100519.44
2023-09-09T22:32:36.842Z,100526.03
2023-09-09T22:35:06.915Z,100518.69
2023-09-09T22:37:37.904Z,100520.50
2023-09-09T22:40:10.629Z,100527.00
2023-09-09T22:42:39.043Z,100516.81
2023-09-09T22:45:07.346Z,100515.00
2023-09-09T22:47:35.336Z,100516.53
2023-09-09T22:50:04.828Z,100522.34
2023-09-09T22:52:33.104Z,100515.84
2023-09-09T22:55:01.844Z,100522.44
2023-09-09T22:57:32.143Z,100518.38
2023-09-09T23:00:00.048Z,100521.47
2023-09-09T23:02:29.068Z,100516.56
2023-09-09T23:04:57.765Z,100526.28
2023-09-09T23:07:28.965Z,100527.25
2023-09-09T23:10:02.379Z,100521.84
2023-09-09T23:12:33.128Z,100525.19
2023-09-09T23:15:01.702Z,100523.97
2023-09-09T23:17:30.906Z,100519.91
2023-09-09T23:19:58.676Z,100526.38
2023-09-09T23:22:26.689Z,100524.00
2023-09-09T23:24:55.217Z,100521.03
2023-09-09T23:27:23.492Z,100523.53
2023-09-09T23:29:53.290Z,100530.16
2023-09-09T23:32:21.315Z,100533.25
2023-09-09T23:34:49.212Z,100530.00
2023-09-09T23:37:17.226Z,100535.50
2023-09-09T23:39:47.358Z,100526.53
2023-09-09T23:42:15.118Z,100524.22
2023-09-09T23:44:43.575Z,100519.91
2023-09-09T23:47:12.988Z,100527.59
2023-09-09T23:49:41.016Z,100530.25
2023-09-09T23:52:09.404Z,100535.66
2023-09-09T23:54:37.158Z,100533.19
2023-09-09T23:57:06.071Z,100537.38
2023-09-09T23:59:34.016Z,100535.31
